sensor_id;sensor_type;location;lat;lon;timestamp;pressure;altitude;pressure_sealevel;temperature;humidity
1472;BME280;963;42.644;23.336;2022-09-11T00:01:19;94061.97;;;20.90;65.94
1472;BME280;963;42.644;23.336;2022-09-11T00:03:45;94049.63;;;20.80;65.57
1472;BME280;963;42.644;23.336;2022-09-11T00:06:16;94071.59;;;20.88;65.98
1472;BME280;963;42.644;23.336;2022-09-11T00:08:43;94049.31;;;20.78;65.82
1472;BME280;963;42.644;23.336;2022-09-11T00:11:17;94074.44;;;20.81;66.38
1472;BME280;963;42.644;23.336;2022-09-11T00:13:47;94062.66;;;20.78;66.36
1472;BME280;963;42.644;23.336;2022-09-11T00:16:23;94056.66;;;20.74;66.54
1472;BME280;963;42.644;23.336;2022-09-11T00:18:51;94060.41;;;20.77;66.63
1472;BME280;963;42.644;23.336;2022-09-11T00:21:17;94063.50;;;20.75;66.68
1472;BME280;963;42.644;23.336;2022-09-11T00:23:42;94064.03;;;20.70;67.05
1472;BME280;963;42.644;23.336;2022-09-11T00:26:08;94059.53;;;20.67;67.08
1472;BME280;963;42.644;23.336;2022-09-11T00:28:37;94066.91;;;20.63;67.26
1472;BME280;963;42.644;23.336;2022-09-11T00:31:06;94078.06;;;20.74;67.25
1472;BME280;963;42.644;23.336;2022-09-11T00:33:33;94065.97;;;20.70;67.19
1472;BME280;963;42.644;23.336;2022-09-11T00:36:01;94079.56;;;20.75;67.41
1472;BME280;963;42.644;23.336;2022-09-11T00:38:30;94069.06;;;20.68;67.23
1472;BME280;963;42.644;23.336;2022-09-11T00:40:58;94067.97;;;20.66;67.82
1472;BME280;963;42.644;23.336;2022-09-11T00:43:26;94067.88;;;20.69;67.75
1472;BME280;963;42.644;23.336;2022-09-11T00:45:56;94070.66;;;20.66;67.64
1472;BME280;963;42.644;23.336;2022-09-11T00:48:23;94075.34;;;20.62;67.82
1472;BME280;963;42.644;23.336;2022-09-11T00:50:50;94072.66;;;20.62;67.52
1472;BME280;963;42.644;23.336;2022-09-11T00:53:19;94075.44;;;20.58;67.83
1472;BME280;963;42.644;23.336;2022-09-11T00:55:50;94077.69;;;20.59;67.90
1472;BME280;963;42.644;23.336;2022-09-11T00:58:21;94076.16;;;20.46;67.69
1472;BME280;963;42.644;23.336;2022-09-11T01:00:51;94067.72;;;20.47;67.52
1472;BME280;963;42.644;23.336;2022-09-11T01:03:19;94058.94;;;20.47;67.77
1472;BME280;963;42.644;23.336;2022-09-11T01:05:45;94065.03;;;20.47;67.67
1472;BME280;963;42.644;23.336;2022-09-11T01:08:12;94068.25;;;20.39;68.25
1472;BME280;963;42.644;23.336;2022-09-11T01:13:20;94068.25;;;20.39;68.79
1472;BME280;963;42.644;23.336;2022-09-11T01:15:57;94064.59;;;20.33;68.99
1472;BME280;963;42.644;23.336;2022-09-11T01:18:53;94069.09;;;20.36;68.74
1472;BME280;963;42.644;23.336;2022-09-11T01:29:49;94078.22;;;20.22;69.28
1472;BME280;963;42.644;23.336;2022-09-11T01:32:23;94077.47;;;20.21;68.94
1472;BME280;963;42.644;23.336;2022-09-11T01:35:35;94067.31;;;20.16;69.26
1472;BME280;963;42.644;23.336;2022-09-11T01:41:23;94061.03;;;20.23;68.76
1472;BME280;963;42.644;23.336;2022-09-11T01:43:52;94061.13;;;20.19;68.86
1472;BME280;963;42.644;23.336;2022-09-11T01:46:23;94069.38;;;20.25;68.24
1472;BME280;963;42.644;23.336;2022-09-11T01:48:54;94055.78;;;20.19;68.54
1472;BME280;963;42.644;23.336;2022-09-11T01:51:25;94053.44;;;20.21;67.67
1472;BME280;963;42.644;23.336;2022-09-11T01:53:53;94041.25;;;20.20;67.82
1472;BME280;963;42.644;23.336;2022-09-11T01:56:28;94042.09;;;20.17;67.65
1472;BME280;963;42.644;23.336;2022-09-11T01:58:59;94043.94;;;20.20;67.52
1472;BME280;963;42.644;23.336;2022-09-11T02:01:30;94037.28;;;20.12;67.63
1472;BME280;963;42.644;23.336;2022-09-11T02:04:12;94011.13;;;20.04;67.44
1472;BME280;963;42.644;23.336;2022-09-11T02:06:51;94030.00;;;20.13;67.54
1472;BME280;963;42.644;23.336;2022-09-11T02:09:22;94047.44;;;20.17;67.78
1472;BME280;963;42.644;23.336;2022-09-11T02:11:52;94026.25;;;20.10;67.56
1472;BME280;963;42.644;23.336;2022-09-11T02:14:38;94029.16;;;20.16;67.95
1472;BME280;963;42.644;23.336;2022-09-11T02:17:12;94035.44;;;20.09;68.38
1472;BME280;963;42.644;23.336;2022-09-11T02:19:39;94037.28;;;20.12;68.14
1472;BME280;963;42.644;23.336;2022-09-11T02:22:05;94029.34;;;20.09;68.42
1472;BME280;963;42.644;23.336;2022-09-11T02:24:32;94037.84;;;20.04;68.75
1472;BME280;963;42.644;23.336;2022-09-11T02:27:03;94031.84;;;19.99;69.01
1472;BME280;963;42.644;23.336;2022-09-11T02:29:30;94021.25;;;19.96;68.99
1472;BME280;963;42.644;23.336;2022-09-11T02:31:56;94028.41;;;19.99;69.64
1472;BME280;963;42.644;23.336;2022-09-11T02:34:27;94036.44;;;19.99;69.54
1472;BME280;963;42.644;23.336;2022-09-11T02:58:32;94040.59;;;19.51;71.38
1472;BME280;963;42.644;23.336;2022-09-11T03:01:01;94041.94;;;19.59;70.61
1472;BME280;963;42.644;23.336;2022-09-11T03:03:27;94041.59;;;19.57;70.40
1472;BME280;963;42.644;23.336;2022-09-11T03:05:54;94041.59;;;19.57;70.50
1472;BME280;963;42.644;23.336;2022-09-11T03:08:19;94035.59;;;19.53;70.96
1472;BME280;963;42.644;23.336;2022-09-11T03:10:45;94044.41;;;19.50;71.01
1472;BME280;963;42.644;23.336;2022-09-11T03:13:12;94036.91;;;19.45;70.96
1472;BME280;963;42.644;23.336;2022-09-11T03:15:39;94046.75;;;19.48;70.98
1472;BME280;963;42.644;23.336;2022-09-11T03:18:04;94038.41;;;19.46;70.87
1472;BME280;963;42.644;23.336;2022-09-11T03:20:30;94051.84;;;19.43;70.76
1472;BME280;963;42.644;23.336;2022-09-11T03:22:55;94056.09;;;19.40;71.14
1472;BME280;963;42.644;23.336;2022-09-11T03:25:21;94047.81;;;19.34;72.09
1472;BME280;963;42.644;23.336;2022-09-11T03:27:53;94051.56;;;19.37;72.85
1472;BME280;963;42.644;23.336;2022-09-11T03:30:19;94065.84;;;19.47;72.88
1472;BME280;963;42.644;23.336;2022-09-11T03:32:45;94058.25;;;19.45;73.09
1472;BME280;963;42.644;23.336;2022-09-11T03:35:10;94057.59;;;19.41;73.39
1472;BME280;963;42.644;23.336;2022-09-11T03:37:35;94069.34;;;19.44;73.98
1472;BME280;963;42.644;23.336;2022-09-11T03:40:01;94071.28;;;19.23;74.71
1472;BME280;963;42.644;23.336;2022-09-11T03:42:27;94066.28;;;19.25;73.77
1472;BME280;963;42.644;23.336;2022-09-11T03:44:52;94073.88;;;19.27;73.03
1472;BME280;963;42.644;23.336;2022-09-11T03:47:18;94075.94;;;19.19;71.93
1472;BME280;963;42.644;23.336;2022-09-11T03:49:46;94066.84;;;19.17;72.37
1472;BME280;963;42.644;23.336;2022-09-11T03:52:12;94063.50;;;19.13;73.64
1472;BME280;963;42.644;23.336;2022-09-11T03:54:38;94085.53;;;19.17;73.82
1472;BME280;963;42.644;23.336;2022-09-11T03:57:04;94084.03;;;19.16;74.20
1472;BME280;963;42.644;23.336;2022-09-11T03:59:30;94092.44;;;19.14;74.74
1472;BME280;963;42.644;23.336;2022-09-11T04:01:56;94098.94;;;19.13;74.83
1472;BME280;963;42.644;23.336;2022-09-11T04:04:21;94095.84;;;19.15;75.06
1472;BME280;963;42.644;23.336;2022-09-11T04:06:47;94094.34;;;19.14;75.61
1472;BME280;963;42.644;23.336;2022-09-11T04:09:12;94082.19;;;19.13;75.80
1472;BME280;963;42.644;23.336;2022-09-11T04:11:37;94088.69;;;19.12;76.02
1472;BME280;963;42.644;23.336;2022-09-11T04:14:05;94071.19;;;19.11;76.25
1472;BME280;963;42.644;23.336;2022-09-11T04:16:30;94076.06;;;18.96;74.56
1472;BME280;963;42.644;23.336;2022-09-11T04:19:00;94081.78;;;18.74;75.70
1472;BME280;963;42.644;23.336;2022-09-11T04:21:26;94082.47;;;18.79;75.09
1472;BME280;963;42.644;23.336;2022-09-11T04:23:53;94086.03;;;18.72;75.37
1472;BME280;963;42.644;23.336;2022-09-11T04:26:23;94082.75;;;18.64;75.23
1472;BME280;963;42.644;23.336;2022-09-11T04:28:49;94080.63;;;18.52;75.39
1472;BME280;963;42.644;23.336;2022-09-11T04:31:17;94084.59;;;18.44;74.67
1472;BME280;963;42.644;23.336;2022-09-11T04:33:43;94094.56;;;18.40;74.58
1472;BME280;963;42.644;23.336;2022-09-11T04:36:11;94084.84;;;18.30;75.10
1472;BME280;963;42.644;23.336;2022-09-11T04:38:37;94089.97;;;18.40;74.47
1472;BME280;963;42.644;23.336;2022-09-11T04:41:04;94089.16;;;18.43;73.71
1472;BME280;963;42.644;23.336;2022-09-11T04:43:31;94095.88;;;18.52;74.73
1472;BME280;963;42.644;23.336;2022-09-11T04:46:08;94094.97;;;18.58;74.57
1472;BME280;963;42.644;23.336;2022-09-11T04:48:34;94088.91;;;18.58;74.03
1472;BME280;963;42.644;23.336;2022-09-11T04:51:06;94093.44;;;18.61;74.06
1472;BME280;963;42.644;23.336;2022-09-11T04:53:33;94088.00;;;18.68;74.28
1472;BME280;963;42.644;23.336;2022-09-11T04:56:07;94094.16;;;18.85;74.43
1472;BME280;963;42.644;23.336;2022-09-11T04:58:34;94076.31;;;18.82;74.70
1472;BME280;963;42.644;23.336;2022-09-11T05:01:00;94085.59;;;18.93;73.97
1472;BME280;963;42.644;23.336;2022-09-11T05:03:25;94092.03;;;18.96;73.76
1472;BME280;963;42.644;23.336;2022-09-11T05:05:51;94077.75;;;18.86;73.02
1472;BME280;963;42.644;23.336;2022-09-11T05:08:16;94088.16;;;19.00;73.33
1472;BME280;963;42.644;23.336;2022-09-11T05:10:47;94082.66;;;19.08;73.07
1472;BME280;963;42.644;23.336;2022-09-11T05:13:12;94081.84;;;19.11;73.03
1472;BME280;963;42.644;23.336;2022-09-11T05:15:38;94087.16;;;19.11;73.33
1472;BME280;963;42.644;23.336;2022-09-11T05:18:04;94090.69;;;19.24;73.31
1472;BME280;963;42.644;23.336;2022-09-11T05:20:29;94084.06;;;19.32;73.24
1472;BME280;963;42.644;23.336;2022-09-11T05:22:55;94083.19;;;19.19;74.42
1472;BME280;963;42.644;23.336;2022-09-11T05:25:21;94080.28;;;19.29;74.16
1472;BME280;963;42.644;23.336;2022-09-11T05:27:46;94077.28;;;19.27;74.69
1472;BME280;963;42.644;23.336;2022-09-11T05:30:12;94091.94;;;19.39;74.73
1472;BME280;963;42.644;23.336;2022-09-11T05:32:38;94086.78;;;19.48;74.73
1472;BME280;963;42.644;23.336;2022-09-11T05:35:04;94085.88;;;19.55;74.70
1472;BME280;963;42.644;23.336;2022-09-11T05:37:31;94072.13;;;19.56;74.66
1472;BME280;963;42.644;23.336;2022-09-11T05:39:56;94079.22;;;19.63;74.85
1472;BME280;963;42.644;23.336;2022-09-11T05:42:22;94085.91;;;19.71;74.27
1472;BME280;963;42.644;23.336;2022-09-11T05:44:48;94087.34;;;19.76;74.17
1472;BME280;963;42.644;23.336;2022-09-11T05:47:13;94070.81;;;19.81;73.79
1472;BME280;963;42.644;23.336;2022-09-11T05:49:39;94068.16;;;19.81;73.50
1472;BME280;963;42.644;23.336;2022-09-11T05:52:04;94068.72;;;19.88;74.31
1472;BME280;963;42.644;23.336;2022-09-11T05:54:30;94086.75;;;20.01;72.99
1472;BME280;963;42.644;23.336;2022-09-11T05:56:56;94068.47;;;19.99;73.13
1472;BME280;963;42.644;23.336;2022-09-11T05:59:22;94070.81;;;20.13;73.22
1472;BME280;963;42.644;23.336;2022-09-11T06:01:47;94072.47;;;20.23;72.79
1472;BME280;963;42.644;23.336;2022-09-11T06:04:13;94083.81;;;20.27;72.57
1472;BME280;963;42.644;23.336;2022-09-11T06:06:39;94080.16;;;20.21;73.20
1472;BME280;963;42.644;23.336;2022-09-11T06:09:05;94068.06;;;20.17;73.26
1472;BME280;963;42.644;23.336;2022-09-11T06:11:31;94083.16;;;19.91;74.62
1472;BME280;963;42.644;23.336;2022-09-11T06:13:58;94064.81;;;20.09;74.01
1472;BME280;963;42.644;23.336;2022-09-11T06:16:24;94081.56;;;20.26;74.03
1472;BME280;963;42.644;23.336;2022-09-11T06:18:50;94082.13;;;20.34;73.92
1472;BME280;963;42.644;23.336;2022-09-11T06:21:20;94105.19;;;20.27;74.05
1472;BME280;963;42.644;23.336;2022-09-11T06:23:47;94084.91;;;20.46;72.91
1472;BME280;963;42.644;23.336;2022-09-11T06:26:14;94088.81;;;20.58;72.27
1472;BME280;963;42.644;23.336;2022-09-11T06:28:40;94088.66;;;20.49;72.69
1472;BME280;963;42.644;23.336;2022-09-11T06:31:09;94086.78;;;20.62;72.20
1472;BME280;963;42.644;23.336;2022-09-11T06:33:37;94097.19;;;20.73;71.01
1472;BME280;963;42.644;23.336;2022-09-11T06:36:09;94089.16;;;20.73;70.79
1472;BME280;963;42.644;23.336;2022-09-11T06:38:35;94107.78;;;20.76;70.59
1472;BME280;963;42.644;23.336;2022-09-11T06:41:02;94104.13;;;20.70;71.50
1472;BME280;963;42.644;23.336;2022-09-11T06:43:29;94098.44;;;20.84;71.00
1472;BME280;963;42.644;23.336;2022-09-11T06:45:54;94111.94;;;20.94;70.71
1472;BME280;963;42.644;23.336;2022-09-11T06:48:20;94102.53;;;21.02;70.39
1472;BME280;963;42.644;23.336;2022-09-11T06:50:46;94099.66;;;21.09;70.11
1472;BME280;963;42.644;23.336;2022-09-11T06:53:12;94122.22;;;21.08;69.65
1472;BME280;963;42.644;23.336;2022-09-11T06:55:39;94109.09;;;21.13;68.74
1472;BME280;963;42.644;23.336;2022-09-11T06:58:05;94100.13;;;21.20;68.68
1472;BME280;963;42.644;23.336;2022-09-11T07:00:33;94098.13;;;21.24;68.51
1472;BME280;963;42.644;23.336;2022-09-11T07:02:59;94091.53;;;21.12;68.23
1472;BME280;963;42.644;23.336;2022-09-11T07:05:26;94099.44;;;21.32;68.03
1472;BME280;963;42.644;23.336;2022-09-11T07:07:52;94099.00;;;21.46;66.47
1472;BME280;963;42.644;23.336;2022-09-11T07:10:17;94117.84;;;21.56;64.78
1472;BME280;963;42.644;23.336;2022-09-11T07:12:43;94105.47;;;21.62;64.61
1472;BME280;963;42.644;23.336;2022-09-11T07:15:09;94109.41;;;21.57;64.37
1472;BME280;963;42.644;23.336;2022-09-11T07:17:35;94113.56;;;21.45;64.87
1472;BME280;963;42.644;23.336;2022-09-11T07:20:04;94108.63;;;21.44;64.00
1472;BME280;963;42.644;23.336;2022-09-11T07:22:30;94090.66;;;21.44;64.15
1472;BME280;963;42.644;23.336;2022-09-11T07:24:56;94099.44;;;21.83;64.16
1472;BME280;963;42.644;23.336;2022-09-11T07:27:22;94093.22;;;21.86;63.94
1472;BME280;963;42.644;23.336;2022-09-11T07:29:48;94114.22;;;22.00;64.07
1472;BME280;963;42.644;23.336;2022-09-11T07:32:14;94109.63;;;22.01;63.15
1472;BME280;963;42.644;23.336;2022-09-11T07:34:39;94091.09;;;22.06;60.76
1472;BME280;963;42.644;23.336;2022-09-11T07:37:05;94106.63;;;22.11;61.37
1472;BME280;963;42.644;23.336;2022-09-11T07:39:31;94094.25;;;22.27;61.04
1472;BME280;963;42.644;23.336;2022-09-11T07:41:56;94098.13;;;22.26;60.93
1472;BME280;963;42.644;23.336;2022-09-11T07:44:22;94106.59;;;22.37;60.81
1472;BME280;963;42.644;23.336;2022-09-11T07:46:50;94092.13;;;22.34;60.97
1472;BME280;963;42.644;23.336;2022-09-11T07:49:16;94107.31;;;22.50;59.33
1472;BME280;963;42.644;23.336;2022-09-11T07:51:42;94102.09;;;22.34;59.52
1472;BME280;963;42.644;23.336;2022-09-11T07:54:08;94101.88;;;22.28;58.40
1472;BME280;963;42.644;23.336;2022-09-11T07:56:34;94078.44;;;22.20;59.61
1472;BME280;963;42.644;23.336;2022-09-11T07:59:00;94083.09;;;22.41;57.70
1472;BME280;963;42.644;23.336;2022-09-11T08:01:28;94081.34;;;22.47;59.57
1472;BME280;963;42.644;23.336;2022-09-11T08:03:58;94086.22;;;22.61;58.32
1472;BME280;963;42.644;23.336;2022-09-11T08:08:56;94087.03;;;22.84;56.59
1472;BME280;963;42.644;23.336;2022-09-11T08:11:23;94088.75;;;22.77;56.81
1472;BME280;963;42.644;23.336;2022-09-11T08:13:50;94080.13;;;22.61;56.28
1472;BME280;963;42.644;23.336;2022-09-11T08:16:20;94067.16;;;22.59;55.74
1472;BME280;963;42.644;23.336;2022-09-11T08:18:46;94076.31;;;22.84;55.63
1472;BME280;963;42.644;23.336;2022-09-11T08:21:13;94072.66;;;22.77;56.02
1472;BME280;963;42.644;23.336;2022-09-11T08:23:40;94066.81;;;22.92;54.37
1472;BME280;963;42.644;23.336;2022-09-11T08:26:11;94065.63;;;22.93;54.85
1472;BME280;963;42.644;23.336;2022-09-11T08:28:38;94068.81;;;23.00;54.70
1472;BME280;963;42.644;23.336;2022-09-11T08:31:05;94059.25;;;22.99;55.32
1472;BME280;963;42.644;23.336;2022-09-11T08:33:31;94052.22;;;23.15;54.33
1472;BME280;963;42.644;23.336;2022-09-11T08:35:58;94067.09;;;23.06;55.75
1472;BME280;963;42.644;23.336;2022-09-11T08:38:24;94082.44;;;23.06;55.93
1472;BME280;963;42.644;23.336;2022-09-11T08:40:50;94072.06;;;22.95;56.47
1472;BME280;963;42.644;23.336;2022-09-11T08:43:22;94063.88;;;22.99;56.94
1472;BME280;963;42.644;23.336;2022-09-11T08:45:50;94066.81;;;23.14;56.61
1472;BME280;963;42.644;23.336;2022-09-11T08:48:27;94055.16;;;23.38;55.84
1472;BME280;963;42.644;23.336;2022-09-11T08:50:56;94045.28;;;23.35;56.07
1472;BME280;963;42.644;23.336;2022-09-11T08:53:22;94053.50;;;23.63;57.03
1472;BME280;963;42.644;23.336;2022-09-11T08:55:58;94049.34;;;23.71;55.46
1472;BME280;963;42.644;23.336;2022-09-11T09:03:42;94035.25;;;23.98;55.23
1472;BME280;963;42.644;23.336;2022-09-11T09:17:46;94026.50;;;24.34;52.24
1472;BME280;963;42.644;23.336;2022-09-11T09:20:21;94013.97;;;24.40;51.04
1472;BME280;963;42.644;23.336;2022-09-11T09:22:59;94023.81;;;24.52;51.27
1472;BME280;963;42.644;23.336;2022-09-11T09:25:27;94014.84;;;24.65;50.69
1472;BME280;963;42.644;23.336;2022-09-11T09:30:22;94006.19;;;24.70;49.98
1472;BME280;963;42.644;23.336;2022-09-11T09:33:33;94011.38;;;24.82;50.45
1472;BME280;963;42.644;23.336;2022-09-11T09:36:18;94031.16;;;24.61;49.57
1472;BME280;963;42.644;23.336;2022-09-11T09:38:45;94013.81;;;24.62;49.36
1472;BME280;963;42.644;23.336;2022-09-11T09:44:23;94011.38;;;24.91;48.35
1472;BME280;963;42.644;23.336;2022-09-11T09:46:53;94007.78;;;25.04;48.21
1472;BME280;963;42.644;23.336;2022-09-11T09:49:32;94000.44;;;25.13;47.33
1472;BME280;963;42.644;23.336;2022-09-11T09:52:15;93996.19;;;25.21;47.24
1472;BME280;963;42.644;23.336;2022-09-11T09:54:42;93993.75;;;25.42;46.78
1472;BME280;963;42.644;23.336;2022-09-11T09:57:09;94010.31;;;25.49;45.92
1472;BME280;963;42.644;23.336;2022-09-11T10:02:40;93987.69;;;25.56;45.16
1472;BME280;963;42.644;23.336;2022-09-11T10:05:16;93984.88;;;25.50;44.78
1472;BME280;963;42.644;23.336;2022-09-11T10:07:54;93985.03;;;25.47;44.65
1472;BME280;963;42.644;23.336;2022-09-11T10:10:28;93977.47;;;25.60;45.31
1472;BME280;963;42.644;23.336;2022-09-11T10:13:03;93984.38;;;25.61;44.76
1472;BME280;963;42.644;23.336;2022-09-11T10:15:29;93989.00;;;25.61;44.71
1472;BME280;963;42.644;23.336;2022-09-11T10:23:52;93991.88;;;26.14;43.55
1472;BME280;963;42.644;23.336;2022-09-11T10:28:47;93968.31;;;26.38;42.83
1472;BME280;963;42.644;23.336;2022-09-11T10:31:14;93966.88;;;26.52;43.12
1472;BME280;963;42.644;23.336;2022-09-11T10:34:02;93970.22;;;26.62;42.84
1472;BME280;963;42.644;23.336;2022-09-11T10:36:29;93971.25;;;26.64;42.96
1472;BME280;963;42.644;23.336;2022-09-11T10:38:57;93974.13;;;26.75;42.76
1472;BME280;963;42.644;23.336;2022-09-11T10:41:25;93972.66;;;26.89;42.14
1472;BME280;963;42.644;23.336;2022-09-11T10:43:59;93967.63;;;26.97;42.56
1472;BME280;963;42.644;23.336;2022-09-11T10:46:34;93973.03;;;26.82;42.66
1472;BME280;963;42.644;23.336;2022-09-11T10:51:29;93957.78;;;27.08;42.71
1472;BME280;963;42.644;23.336;2022-09-11T10:56:31;93955.88;;;27.29;42.39
1472;BME280;963;42.644;23.336;2022-09-11T10:59:03;93959.50;;;27.41;41.95
1472;BME280;963;42.644;23.336;2022-09-11T11:01:30;93950.25;;;27.48;41.81
1472;BME280;963;42.644;23.336;2022-09-11T11:03:56;93945.56;;;27.63;41.96
1472;BME280;963;42.644;23.336;2022-09-11T11:06:54;93949.28;;;27.65;41.93
1472;BME280;963;42.644;23.336;2022-09-11T11:12:35;93941.06;;;27.95;41.41
1472;BME280;963;42.644;23.336;2022-09-11T11:15:42;93945.19;;;28.11;41.48
1472;BME280;963;42.644;23.336;2022-09-11T11:32:01;93913.69;;;28.28;41.14
1472;BME280;963;42.644;23.336;2022-09-11T11:34:43;93923.50;;;28.51;40.86
1472;BME280;963;42.644;23.336;2022-09-11T11:37:23;93906.28;;;28.54;40.02
1472;BME280;963;42.644;23.336;2022-09-11T11:39:56;93912.13;;;28.73;40.54
1472;BME280;963;42.644;23.336;2022-09-11T11:42:33;93903.63;;;28.86;39.85
1472;BME280;963;42.644;23.336;2022-09-11T11:47:37;93900.63;;;29.10;38.90
1472;BME280;963;42.644;23.336;2022-09-11T12:01:17;93908.53;;;28.56;39.43
1472;BME280;963;42.644;23.336;2022-09-11T12:06:41;93900.09;;;28.02;40.08
1472;BME280;963;42.644;23.336;2022-09-11T12:09:07;93897.28;;;27.91;40.84
1472;BME280;963;42.644;23.336;2022-09-11T12:11:35;93902.53;;;27.80;40.85
1472;BME280;963;42.644;23.336;2022-09-11T12:14:01;93894.34;;;27.94;40.41
1472;BME280;963;42.644;23.336;2022-09-11T12:16:30;93896.97;;;28.29;40.40
1472;BME280;963;42.644;23.336;2022-09-11T12:19:15;93885.66;;;28.57;39.58
1472;BME280;963;42.644;23.336;2022-09-11T12:24:25;93880.09;;;28.66;39.07
1472;BME280;963;42.644;23.336;2022-09-11T12:35:38;93872.59;;;27.63;40.83
1472;BME280;963;42.644;23.336;2022-09-11T12:45:45;93868.88;;;28.53;39.51
1472;BME280;963;42.644;23.336;2022-09-11T12:48:16;93851.00;;;28.92;39.33
1472;BME280;963;42.644;23.336;2022-09-11T12:50:53;93856.81;;;29.17;37.77
1472;BME280;963;42.644;23.336;2022-09-11T12:53:26;93852.72;;;29.33;37.88
1472;BME280;963;42.644;23.336;2022-09-11T12:55:54;93853.59;;;29.55;37.54
1472;BME280;963;42.644;23.336;2022-09-11T12:58:25;93863.22;;;29.56;37.63
1472;BME280;963;42.644;23.336;2022-09-11T13:01:04;93856.25;;;29.02;38.74
1472;BME280;963;42.644;23.336;2022-09-11T13:03:31;93831.75;;;29.27;38.62
1472;BME280;963;42.644;23.336;2022-09-11T13:06:11;93856.34;;;29.67;37.25
1472;BME280;963;42.644;23.336;2022-09-11T13:08:54;93844.09;;;29.77;38.07
1472;BME280;963;42.644;23.336;2022-09-11T13:14:01;93836.09;;;30.55;36.21
1472;BME280;963;42.644;23.336;2022-09-11T13:16:28;93823.53;;;30.86;35.77
1472;BME280;963;42.644;23.336;2022-09-11T13:19:12;93814.81;;;31.15;35.31
1472;BME280;963;42.644;23.336;2022-09-11T13:21:39;93800.97;;;31.35;35.05
1472;BME280;963;42.644;23.336;2022-09-11T13:26:54;93803.16;;;31.42;34.85
1472;BME280;963;42.644;23.336;2022-09-11T13:29:22;93800.63;;;31.61;34.66
1472;BME280;963;42.644;23.336;2022-09-11T13:31:50;93794.00;;;31.46;34.53
1472;BME280;963;42.644;23.336;2022-09-11T13:34:18;93793.31;;;31.28;34.60
1472;BME280;963;42.644;23.336;2022-09-11T13:36:46;93804.00;;;30.82;35.26
1472;BME280;963;42.644;23.336;2022-09-11T13:39:14;93788.22;;;30.52;35.24
1472;BME280;963;42.644;23.336;2022-09-11T13:41:42;93791.66;;;30.36;35.81
1472;BME280;963;42.644;23.336;2022-09-11T13:44:35;93812.09;;;30.03;36.08
1472;BME280;963;42.644;23.336;2022-09-11T13:47:04;93799.16;;;29.70;36.33
1472;BME280;963;42.644;23.336;2022-09-11T13:49:36;93801.47;;;29.29;37.46
1472;BME280;963;42.644;23.336;2022-09-11T13:52:08;93786.34;;;29.06;37.24
1472;BME280;963;42.644;23.336;2022-09-11T13:54:39;93788.38;;;28.79;38.14
1472;BME280;963;42.644;23.336;2022-09-11T14:05:11;93787.69;;;29.33;37.89
1472;BME280;963;42.644;23.336;2022-09-11T14:10:54;93784.13;;;29.69;36.68
1472;BME280;963;42.644;23.336;2022-09-11T14:15:56;93770.63;;;29.86;36.35
1472;BME280;963;42.644;23.336;2022-09-11T14:20:55;93768.91;;;29.23;37.85
1472;BME280;963;42.644;23.336;2022-09-11T14:23:25;93761.78;;;29.26;37.31
1472;BME280;963;42.644;23.336;2022-09-11T14:36:32;93761.72;;;28.67;36.80
1472;BME280;963;42.644;23.336;2022-09-11T14:39:02;93753.47;;;28.50;36.74
1472;BME280;963;42.644;23.336;2022-09-11T14:41:28;93749.47;;;28.40;36.80
1472;BME280;963;42.644;23.336;2022-09-11T14:43:53;93758.16;;;28.23;37.08
1472;BME280;963;42.644;23.336;2022-09-11T14:46:18;93756.50;;;28.00;37.38
1472;BME280;963;42.644;23.336;2022-09-11T14:48:44;93747.06;;;27.90;36.84
1472;BME280;963;42.644;23.336;2022-09-11T14:51:10;93751.19;;;27.85;37.67
1472;BME280;963;42.644;23.336;2022-09-11T14:53:36;93750.44;;;27.59;37.83
1472;BME280;963;42.644;23.336;2022-09-11T14:56:02;93760.22;;;27.56;37.34
1472;BME280;963;42.644;23.336;2022-09-11T14:58:28;93749.00;;;27.43;37.44
1472;BME280;963;42.644;23.336;2022-09-11T15:00:55;93755.66;;;27.22;37.98
1472;BME280;963;42.644;23.336;2022-09-11T15:03:21;93748.34;;;27.07;37.78
1472;BME280;963;42.644;23.336;2022-09-11T15:05:53;93755.38;;;26.99;37.64
1472;BME280;963;42.644;23.336;2022-09-11T15:08:19;93758.84;;;26.85;38.32
1472;BME280;963;42.644;23.336;2022-09-11T15:10:46;93755.06;;;26.77;37.14
1472;BME280;963;42.644;23.336;2022-09-11T15:13:13;93753.75;;;26.72;37.19
1472;BME280;963;42.644;23.336;2022-09-11T15:15:38;93748.06;;;26.50;37.02
1472;BME280;963;42.644;23.336;2022-09-11T15:18:05;93745.84;;;26.48;37.33
1472;BME280;963;42.644;23.336;2022-09-11T15:20:31;93732.25;;;26.28;37.54
1472;BME280;963;42.644;23.336;2022-09-11T15:22:56;93746.88;;;26.22;38.26
1472;BME280;963;42.644;23.336;2022-09-11T15:25:22;93761.59;;;26.06;38.32
1472;BME280;963;42.644;23.336;2022-09-11T15:27:49;93750.06;;;26.05;38.57
1472;BME280;963;42.644;23.336;2022-09-11T15:30:16;93760.56;;;26.03;38.59
1472;BME280;963;42.644;23.336;2022-09-11T15:32:42;93748.19;;;25.97;38.80
1472;BME280;963;42.644;23.336;2022-09-11T15:35:09;93740.47;;;25.90;38.84
1472;BME280;963;42.644;23.336;2022-09-11T15:37:36;93739.06;;;25.79;38.64
1472;BME280;963;42.644;23.336;2022-09-11T15:40:01;93743.38;;;25.62;39.44
1472;BME280;963;42.644;23.336;2022-09-11T15:42:27;93742.38;;;25.60;39.54
1472;BME280;963;42.644;23.336;2022-09-11T15:44:53;93748.78;;;25.62;39.69
1472;BME280;963;42.644;23.336;2022-09-11T15:47:18;93752.69;;;25.61;39.76
1472;BME280;963;42.644;23.336;2022-09-11T15:49:44;93762.34;;;25.53;39.75
1472;BME280;963;42.644;23.336;2022-09-11T15:52:12;93755.63;;;25.48;39.86
1472;BME280;963;42.644;23.336;2022-09-11T15:54:38;93762.13;;;25.42;40.24
1472;BME280;963;42.644;23.336;2022-09-11T15:57:04;93776.88;;;25.32;40.44
1472;BME280;963;42.644;23.336;2022-09-11T15:59:29;93794.56;;;25.23;40.24
1472;BME280;963;42.644;23.336;2022-09-11T16:01:55;93815.72;;;25.16;40.28
1472;BME280;963;42.644;23.336;2022-09-11T16:04:24;93828.75;;;25.08;42.91
1472;BME280;963;42.644;23.336;2022-09-11T16:06:51;93837.78;;;24.96;44.27
1472;BME280;963;42.644;23.336;2022-09-11T16:09:23;93837.84;;;24.78;46.69
1472;BME280;963;42.644;23.336;2022-09-11T16:11:50;93850.66;;;24.50;47.78
1472;BME280;963;42.644;23.336;2022-09-11T16:14:27;93870.88;;;23.99;50.54